Time;durP1;ratioP1;P1;durP2;ratioP2;P2;SDS_P1;SDS_P2;PMS_P1;PMS_P2;Temp;Humidity;BMP_temperature;BMP_pressure;BME280_temperature;BME280_humidity;BME280_pressure;Samples;Min_cycle;Max_cycle;Signal;HPM_P1;HPM_P2
2023/10/02 11:57:52;;;;;;;52.63;5.57;;;;;;;18.65;66.71;99960.22;7331366;19;129605;-64
2023/10/02 12:00:21;;;;;;;102.28;10.13;;;;;;;18.67;65.36;99953.97;7325758;19;130466;-63
2023/10/02 12:02:47;;;;;;;44.53;5.28;;;;;;;18.70;65.93;99953.72;7325748;19;133205;-67
2023/10/02 12:05:12;;;;;;;67.53;6.65;;;;;;;18.75;65.19;99956.81;7340832;19;129276;-64
2023/10/02 12:07:39;;;;;;;78.07;7.55;;;;;;;18.86;64.37;99954.25;7333148;19;129808;-66
2023/10/02 12:10:06;;;;;;;61.83;6.00;;;;;;;18.98;64.66;99948.13;7345058;19;129627;-64
2023/10/02 12:12:31;;;;;;;;;;;;;;;19.09;66.17;99939.50;7340182;19;129028;-65
2023/10/02 12:14:57;;;;;;;66.73;6.27;;;;;;;19.26;63.51;99942.53;7340611;19;132158;-67
2023/10/02 12:17:23;;;;;;;44.33;4.93;;;;;;;19.36;63.43;99938.31;7335470;19;129289;-66
2023/10/02 12:19:48;;;;;;;23.42;4.32;;;;;;;19.40;62.49;99911.03;7346487;19;129343;-68
2023/10/02 12:22:14;;;;;;;52.75;6.10;;;;;;;19.60;62.22;99924.31;7338613;19;131755;-64
2023/10/02 12:24:40;;;;;;;51.57;5.83;;;;;;;19.70;62.04;99920.06;7342497;19;130131;-68
2023/10/02 12:27:10;;;;;;;76.93;7.72;;;;;;;19.80;61.78;99918.38;7335580;19;130930;-65
2023/10/02 12:29:36;;;;;;;51.97;5.90;;;;;;;19.98;61.17;99912.53;7339159;19;129075;-65
2023/10/02 12:32:01;;;;;;;50.40;6.25;;;;;;;20.07;60.66;99910.97;7341393;19;130769;-68
2023/10/02 12:34:29;;;;;;;56.97;5.93;;;;;;;20.10;61.34;99908.13;7341910;19;130159;-69
2023/10/02 12:36:55;;;;;;;101.38;8.95;;;;;;;20.22;60.06;99908.00;7336506;19;129437;-68
2023/10/02 12:39:22;;;;;;;39.92;4.88;;;;;;;20.30;60.19;99910.00;7343687;19;129926;-66
2023/10/02 12:41:48;;;;;;;31.90;4.75;;;;;;;20.37;60.05;99908.56;7342919;19;129502;-66
2023/10/02 12:44:14;;;;;;;69.78;7.00;;;;;;;20.29;59.11;99887.47;7342021;19;132731;-65
2023/10/02 12:46:43;;;;;;;51.35;6.07;;;;;;;20.48;59.21;99908.50;7340042;19;129012;-69
2023/10/02 12:49:15;;;;;;;63.90;6.97;;;;;;;20.50;59.59;99904.00;7342358;19;128932;-70
2023/10/02 12:51:41;;;;;;;33.10;4.72;;;;;;;20.51;59.86;99903.06;7338703;19;129061;-67
2023/10/02 12:54:08;;;;;;;66.50;6.87;;;;;;;20.63;59.27;99902.88;7341829;19;129124;-67
2023/10/02 12:56:33;;;;;;;84.85;7.20;;;;;;;20.61;58.94;99898.69;7340304;19;129048;-69
2023/10/02 12:58:59;;;;;;;51.03;5.90;;;;;;;20.67;58.96;99901.66;7340531;19;129166;-66
2023/10/02 13:01:27;;;;;;;8.50;3.03;;;;;;;20.65;58.70;99884.44;7340402;19;130113;-65
2023/10/02 13:03:54;;;;;;;40.58;4.60;;;;;;;20.80;58.48;99898.03;7341962;19;130666;-70
2023/10/02 13:06:21;;;;;;;47.83;5.18;;;;;;;20.78;58.74;99890.31;7340170;19;129651;-67
2023/10/02 13:08:47;;;;;;;32.08;4.00;;;;;;;20.84;58.11;99889.78;7317350;19;130510;-66
2023/10/02 13:11:18;;;;;;;31.83;4.47;;;;;;;20.84;58.85;99894.22;7310306;19;130558;-68
2023/10/02 13:13:46;;;;;;;27.25;4.13;;;;;;;20.84;58.38;99889.78;7310617;19;129228;-65
2023/10/02 13:16:16;;;;;;;98.80;7.90;;;;;;;20.76;58.60;99868.69;7308894;19;128939;-67
2023/10/02 13:18:43;;;;;;;52.60;5.32;;;;;;;20.87;58.62;99889.56;7313206;19;128992;-67
2023/10/02 13:21:10;;;;;;;33.75;4.10;;;;;;;20.87;58.14;99886.13;7309815;19;132661;-68
2023/10/02 13:23:37;;;;;;;37.72;4.68;;;;;;;20.87;57.70;99886.94;7310834;19;129558;-68
2023/10/02 13:26:06;;;;;;;93.60;7.80;;;;;;;20.96;58.22;99885.34;7310170;19;129926;-66
2023/10/02 13:28:34;;;;;;;57.33;5.45;;;;;;;20.97;57.98;99882.66;7309617;19;130530;-67
2023/10/02 13:31:16;;;;;;;115.88;9.75;;;;;;;20.99;59.16;99872.06;7308803;19;129905;-68
2023/10/02 13:33:52;;;;;;;31.85;4.40;;;;;;;20.94;59.72;99869.78;7308998;19;130336;-68
2023/10/02 13:36:22;;;;;;;30.35;4.00;;;;;;;21.01;57.71;99870.97;7308743;19;130425;-68
2023/10/02 13:38:51;;;;;;;40.10;4.47;;;;;;;21.04;57.57;99870.69;7311757;19;128914;-69
2023/10/02 13:41:18;;;;;;;76.03;6.32;;;;;;;21.01;58.18;99864.91;7307825;19;131684;-69
2023/10/02 13:43:45;;;;;;;32.92;4.15;;;;;;;21.05;57.79;99861.91;7314760;19;129595;-68
2023/10/02 13:46:11;;;;;;;;;;;;;;;21.11;60.42;99855.31;7313274;19;130995;-68
2023/10/02 13:48:38;;;;;;;56.50;5.72;;;;;;;21.13;57.84;99848.19;7309312;19;129760;-67
2023/10/02 13:51:07;;;;;;;116.93;8.88;;;;;;;21.09;57.47;99847.59;7308592;19;130151;-66
2023/10/02 13:53:34;;;;;;;59.65;5.40;;;;;;;21.00;57.46;99827.50;7311589;19;129930;-68
2023/10/02 13:56:11;;;;;;;42.22;4.90;;;;;;;21.06;58.63;99837.41;7308064;19;129761;-69
2023/10/02 13:58:40;;;;;;;33.88;4.28;;;;;;;21.10;58.23;99843.22;7311144;19;129543;-66
2023/10/02 14:01:09;;;;;;;94.80;7.72;;;;;;;21.09;57.60;99839.75;7312363;19;133165;-69
2023/10/02 14:03:35;;;;;;;55.40;5.28;;;;;;;21.00;56.88;99814.41;7305686;19;129492;-69
2023/10/02 14:06:07;;;;;;;39.13;4.72;;;;;;;21.10;58.36;99836.22;7309799;19;128868;-68
2023/10/02 14:08:33;;;;;;;34.85;4.03;;;;;;;21.11;57.25;99835.25;7310165;19;132104;-66
2023/10/02 14:11:00;;;;;;;51.57;5.37;;;;;;;21.16;57.35;99838.28;7311957;19;129465;-68
2023/10/02 14:13:25;;;;;;;56.60;5.05;;;;;;;21.16;57.00;99835.69;7312418;19;129544;-68
2023/10/02 14:15:53;;;;;;;87.40;7.33;;;;;;;21.20;57.49;99833.63;7310936;19;129126;-68
2023/10/02 14:18:18;;;;;;;20.00;3.78;;;;;;;21.17;57.42;99824.25;7311788;19;129894;-67
2023/10/02 14:20:45;;;;;;;187.45;13.98;;;;;;;21.18;57.27;99818.06;7308065;19;129097;-64
2023/10/02 14:23:14;;;;;;;214.73;14.90;;;;;;;21.21;57.18;99824.81;7298529;19;132737;-64
2023/10/02 14:25:43;;;;;;;105.97;8.40;;;;;;;21.21;57.17;99820.44;7310844;19;129048;-69
2023/10/02 14:28:12;;;;;;;30.52;4.05;;;;;;;21.19;57.53;99824.94;7306661;19;129082;-67
2023/10/02 14:30:39;;;;;;;89.20;7.65;;;;;;;21.20;56.81;99826.63;7307599;19;129941;-67
2023/10/02 14:33:05;;;;;;;75.63;6.30;;;;;;;21.21;57.30;99830.88;7306135;19;130213;-69
2023/10/02 14:35:31;;;;;;;52.25;5.03;;;;;;;21.23;57.63;99822.91;7309716;19;129248;-65
2023/10/02 14:37:56;;;;;;;47.08;4.95;;;;;;;21.23;57.98;99815.91;7309054;19;129390;-67
2023/10/02 14:40:29;;;;;;;24.83;3.87;;;;;;;21.23;57.40;99818.50;7306720;19;129514;-68
2023/10/02 14:43:02;;;;;;;55.40;5.47;;;;;;;21.12;58.48;99795.06;7311636;19;129512;-68
2023/10/02 14:45:28;;;;;;;76.30;6.07;;;;;;;21.27;57.18;99814.66;7309353;19;129601;-69
2023/10/02 14:47:56;;;;;;;49.13;5.50;;;;;;;21.23;57.38;99812.44;7306338;19;129523;-67
2023/10/02 14:50:25;;;;;;;53.72;5.32;;;;;;;21.27;57.65;99809.44;7308413;19;130091;-69
2023/10/02 14:52:52;;;;;;;29.27;4.38;;;;;;;21.25;58.38;99800.91;7313698;19;130436;-65
2023/10/02 14:55:18;;;;;;;105.68;8.00;;;;;;;21.23;58.68;99797.59;7309054;19;130187;-69
2023/10/02 14:57:45;;;;;;;57.33;5.20;;;;;;;21.28;58.27;99795.41;7305200;19;130061;-65
2023/10/02 15:00:11;;;;;;;;;;;;;;;21.26;59.72;99793.88;7300825;19;131398;-64
2023/10/02 15:02:37;;;;;;;48.92;5.20;;;;;;;21.25;58.40;99795.69;7305274;19;129198;-68
2023/10/02 15:05:03;;;;;;;77.50;6.50;;;;;;;21.25;59.09;99794.84;7307790;19;129101;-69
2023/10/02 15:07:29;;;;;;;98.07;8.47;;;;;;;21.29;58.87;99799.66;7305873;19;130339;-64
2023/10/02 15:09:55;;;;;;;32.47;3.80;;;;;;;21.25;58.81;99785.22;7310412;19;130399;-68
2023/10/02 15:12:21;;;;;;;52.40;4.65;;;;;;;21.31;58.02;99795.13;7304868;19;133068;-66
2023/10/02 15:14:46;;;;;;;63.83;5.47;;;;;;;21.30;57.87;99798.72;7299861;19;129131;-65
2023/10/02 15:17:11;;;;;;;53.20;5.83;;;;;;;21.31;58.34;99789.91;7302612;19;130622;-68
2023/10/02 15:19:37;;;;;;;89.78;7.43;;;;;;;21.33;58.67;99788.00;7306605;19;129722;-69
2023/10/02 15:22:02;;;;;;;49.03;4.60;;;;;;;21.33;58.49;99782.75;7305302;19;130814;-65
2023/10/02 15:24:32;;;;;;;68.93;5.93;;;;;;;21.33;58.29;99790.63;7308856;19;129261;-65
2023/10/02 15:26:58;;;;;;;47.55;4.82;;;;;;;21.27;57.87;99777.25;7310298;19;128909;-68
2023/10/02 15:31:57;;;;;;;34.45;4.13;;;;;;;21.35;57.57;99788.69;7306695;19;130089;-37
2023/10/02 15:34:23;;;;;;;68.28;6.15;;;;;;;21.36;58.30;99790.34;7311478;19;129072;-37
2023/10/02 15:36:48;;;;;;;36.05;4.75;;;;;;;21.34;57.72;99788.81;7305900;19;130502;-37
2023/10/02 15:39:18;;;;;;;55.77;5.90;;;;;;;21.34;57.93;99787.03;7309016;19;131149;-38
2023/10/02 15:41:44;;;;;;;27.48;4.88;;;;;;;21.37;57.22;99789.38;7309307;19;131180;-36
2023/10/02 15:44:16;;;;;;;89.35;7.40;;;;;;;21.37;58.41;99794.59;7308645;19;131373;-38
2023/10/02 15:46:50;;;;;;;66.13;6.18;;;;;;;21.37;58.13;99788.56;7308158;19;129339;-37
2023/10/02 15:49:17;;;;;;;40.65;4.95;;;;;;;21.38;57.51;99790.22;7310940;19;130478;-36
2023/10/02 15:51:42;;;;;;;34.53;4.65;;;;;;;21.41;57.61;99789.94;7310051;19;131050;-38
2023/10/02 15:54:09;;;;;;;60.55;6.00;;;;;;;21.37;57.82;99789.38;7309206;19;129496;-38
2023/10/02 15:56:35;;;;;;;62.70;5.75;;;;;;;21.37;57.90;99794.59;7308740;19;129623;-37
2023/10/02 15:59:05;;;;;;;30.98;3.92;;;;;;;21.39;57.67;99795.28;7307945;19;131192;-38
2023/10/02 16:01:32;;;;;;;27.38;4.05;;;;;;;21.41;57.55;99793.38;7310495;19;131238;-38
2023/10/02 16:03:57;;;;;;;40.75;4.43;;;;;;;21.40;57.84;99796.13;7309800;19;129443;-37
2023/10/02 16:06:23;;;;;;;72.32;6.47;;;;;;;21.43;57.98;99795.88;7308863;19;129254;-37
2023/10/02 16:08:51;;;;;;;41.85;5.32;;;;;;;21.44;57.24;99800.13;7310956;19;130048;-38
2023/10/02 16:11:21;;;;;;;62.83;6.32;;;;;;;21.44;58.46;99800.97;7307674;19;131082;-38
2023/10/02 16:13:47;;;;;;;59.80;5.70;;;;;;;21.47;57.56;99800.69;7307927;19;129470;-39
2023/10/02 16:16:13;;;;;;;118.47;8.63;;;;;;;21.42;57.96;99802.88;7307258;19;129576;-35
2023/10/02 16:18:39;;;;;;;75.03;6.93;;;;;;;21.46;57.67;99804.28;7303797;19;130881;-38
2023/10/02 16:21:11;;;;;;;48.28;5.03;;;;;;;21.44;58.63;99795.72;7302186;19;130271;-36
2023/10/02 16:23:40;;;;;;;37.85;4.40;;;;;;;21.48;57.54;99801.53;7308062;19;129950;-36
2023/10/02 16:26:15;;;;;;;74.80;6.55;;;;;;;21.44;59.31;99800.13;7308532;19;129514;-37
2023/10/02 16:28:44;;;;;;;59.83;5.70;;;;;;;21.44;57.69;99800.97;7307835;19;130448;-36
2023/10/02 16:31:24;;;;;;;24.38;3.92;;;;;;;21.32;59.75;99775.84;7308595;19;131017;-37
2023/10/02 16:33:50;;;;;;;22.80;4.35;;;;;;;21.47;58.02;99800.69;7305430;19;129855;-37
2023/10/02 16:36:18;;;;;;;68.17;6.10;;;;;;;21.44;58.19;99797.50;7305982;19;130999;-39
2023/10/02 16:38:44;;;;;;;43.85;4.78;;;;;;;21.41;58.64;99801.22;7309270;19;130210;-38
2023/10/02 16:41:10;;;;;;;52.43;5.20;;;;;;;21.44;58.76;99800.97;7307280;19;131332;-38
2023/10/02 16:43:36;;;;;;;55.73;5.60;;;;;;;21.46;58.25;99799.03;7311437;19;131858;-37
2023/10/02 16:46:02;;;;;;;39.45;4.30;;;;;;;21.47;58.53;99805.91;7313914;19;129371;-37
2023/10/02 16:48:27;;;;;;;114.85;9.73;;;;;;;21.47;58.42;99803.31;7311124;19;130524;-37
2023/10/02 16:50:53;;;;;;;44.25;5.38;;;;;;;21.45;58.71;99802.59;7315332;19;129692;-35
2023/10/02 16:53:19;;;;;;;75.80;7.43;;;;;;;21.45;57.96;99797.38;7311652;19;129642;-37
2023/10/02 16:55:44;;;;;;;119.33;9.60;;;;;;;21.43;58.48;99794.09;7311682;19;129119;-38
2023/10/02 16:58:10;;;;;;;97.07;8.47;;;;;;;21.46;58.33;99806.88;7310969;19;130417;-36
2023/10/02 17:00:35;;;;;;;23.23;4.47;;;;;;;21.41;58.72;99803.84;7314752;19;130346;-37
2023/10/02 17:03:02;;;;;;;29.70;4.47;;;;;;;21.41;58.63;99800.41;7310654;19;129272;-37
2023/10/02 17:05:28;;;;;;;80.90;7.53;;;;;;;21.38;58.65;99809.34;7311994;19;129680;-34
2023/10/02 17:07:53;;;;;;;73.25;6.97;;;;;;;21.43;58.55;99809.78;7308963;19;129666;-37
2023/10/02 17:10:22;;;;;;;60.08;6.93;;;;;;;21.44;58.31;99810.59;7314885;19;130344;-37
2023/10/02 17:12:56;;;;;;;37.80;4.95;;;;;;;21.46;58.74;99799.03;7312501;19;129736;-38
2023/10/02 17:15:22;;;;;;;61.92;6.40;;;;;;;21.47;58.88;99805.09;7311930;19;129111;-39
2023/10/02 17:17:48;;;;;;;87.15;7.90;;;;;;;21.34;58.93;99784.41;7306684;19;130084;-37
2023/10/02 17:20:15;;;;;;;79.53;8.27;;;;;;;21.51;58.68;99803.88;7311516;19;131107;-37
2023/10/02 17:22:45;;;;;;;44.55;6.25;;;;;;;21.47;58.50;99805.09;7309823;19;129391;-37
2023/10/02 17:25:13;;;;;;;32.70;5.15;;;;;;;21.46;58.80;99804.28;7315449;19;130403;-40
2023/10/02 17:27:42;;;;;;;132.45;10.73;;;;;;;21.44;59.24;99803.56;7303654;19;130049;-38
2023/10/02 17:30:12;;;;;;;54.10;5.88;;;;;;;21.47;58.68;99794.66;7310728;19;132997;-36
2023/10/02 17:32:38;;;;;;;26.33;5.72;;;;;;;21.45;58.50;99794.75;7312152;19;128939;-37
2023/10/02 17:35:03;;;;;;;39.33;6.30;;;;;;;21.46;58.56;99798.22;7314833;19;129026;-38
2023/10/02 17:37:29;;;;;;;38.65;6.25;;;;;;;21.46;58.79;99788.59;7306712;19;130893;-38
2023/10/02 17:39:54;;;;;;;69.47;8.50;;;;;;;21.34;58.97;99775.72;7310775;19;130153;-38
2023/10/02 17:42:20;;;;;;;99.63;10.90;;;;;;;21.44;58.61;99795.72;7306640;19;129689;-37
2023/10/02 17:44:49;;;;;;;36.38;6.55;;;;;;;21.44;58.55;99795.72;7308886;19;129092;-38
2023/10/02 17:47:15;;;;;;;55.92;7.30;;;;;;;21.47;58.02;99800.69;7309294;19;130917;-37
2023/10/02 17:49:40;;;;;;;71.88;8.18;;;;;;;21.50;58.77;99803.03;7311788;19;130133;-34
2023/10/02 17:52:10;;;;;;;34.67;6.57;;;;;;;21.51;58.97;99801.25;7310681;19;129286;-37
2023/10/02 17:54:35;;;;;;;21.30;5.97;;;;;;;21.48;58.75;99807.59;7312069;19;129162;-39
2023/10/02 17:57:02;;;;;;;33.17;6.85;;;;;;;21.47;58.79;99803.31;7309918;19;130538;-38
2023/10/02 17:59:28;;;;;;;94.88;10.00;;;;;;;21.45;59.14;99807.84;7308223;19;130904;-38
2023/10/02 18:01:59;;;;;;;85.28;9.38;;;;;;;21.44;58.45;99803.56;7308511;19;130108;-36
2023/10/02 18:04:25;;;;;;;69.63;8.82;;;;;;;21.41;58.51;99801.22;7305530;19;128979;-37
2023/10/02 18:06:51;;;;;;;91.00;10.48;;;;;;;21.32;58.43;99775.84;7305357;19;130508;-37
2023/10/02 18:09:17;;;;;;;94.33;9.57;;;;;;;21.44;58.39;99795.72;7306790;19;130307;-36
2023/10/02 18:11:44;;;;;;;67.82;8.45;;;;;;;21.45;58.18;99794.75;7313790;19;129359;-38
2023/10/02 18:14:10;;;;;;;79.00;9.07;;;;;;;21.43;59.22;99788.84;7304629;19;129170;-37
2023/10/02 18:16:36;;;;;;;158.75;13.43;;;;;;;21.44;59.15;99790.50;7303454;19;131218;-37
2023/10/02 18:19:02;;;;;;;66.82;8.50;;;;;;;21.44;58.82;99785.25;7311738;19;131535;-36
2023/10/02 18:21:28;;;;;;;71.63;9.70;;;;;;;21.48;58.74;99791.91;7310394;19;130217;-38
2023/10/02 18:23:53;;;;;;;43.92;7.10;;;;;;;21.48;58.82;99791.06;7312569;19;128992;-37
2023/10/02 18:26:19;;;;;;;182.38;15.40;;;;;;;21.51;58.76;99789.00;7297661;19;130317;-37
2023/10/02 18:28:45;;;;;;;104.07;11.23;;;;;;;21.51;58.31;99796.84;7313391;19;130271;-38
2023/10/02 18:31:10;;;;;;;47.50;7.47;;;;;;;21.50;58.85;99782.09;7313557;19;130889;-38
2023/10/02 18:33:36;;;;;;;38.28;7.68;;;;;;;21.52;58.14;99788.03;7306750;19;129440;-38
2023/10/02 18:36:05;;;;;;;58.60;8.30;;;;;;;21.55;58.06;99782.53;7310885;19;130935;-37
2023/10/02 18:38:34;;;;;;;81.43;9.98;;;;;;;21.55;58.25;99782.53;7304461;19;130766;-37
2023/10/02 18:41:00;;;;;;;179.88;15.05;;;;;;;21.54;57.77;99786.13;7309758;19;130513;-36
2023/10/02 18:43:25;;;;;;;92.95;10.23;;;;;;;21.55;57.94;99787.75;7305464;19;129397;-36
2023/10/02 18:45:51;;;;;;;80.75;10.02;;;;;;;21.56;58.24;99789.44;7309121;19;129751;-38
2023/10/02 18:48:16;;;;;;;67.57;8.53;;;;;;;21.58;58.45;99790.13;7301790;19;131018;-34
2023/10/02 18:50:42;;;;;;;31.13;7.00;;;;;;;21.57;58.22;99796.31;7309516;19;129119;-36
2023/10/02 18:53:07;;;;;;;58.97;9.35;;;;;;;21.59;58.36;99783.94;7310211;19;129144;-38
2023/10/02 18:55:33;;;;;;;93.85;10.95;;;;;;;21.59;58.19;99778.69;7308610;19;130105;-37
2023/10/02 18:57:58;;;;;;;62.40;8.30;;;;;;;21.59;58.52;99783.94;7305911;19;131595;-38
2023/10/02 19:00:23;;;;;;;87.23;10.33;;;;;;;21.57;58.04;99772.75;7296860;19;131006;-36
2023/10/02 19:02:50;;;;;;;31.95;7.85;;;;;;;21.59;58.50;99775.25;7309376;19;129242;-38
2023/10/02 19:05:15;;;;;;;131.13;12.10;;;;;;;21.59;58.63;99768.22;7304678;19;129062;-37
2023/10/02 19:07:42;;;;;;;49.40;8.03;;;;;;;21.61;58.94;99766.31;7307709;19;129281;-36
2023/10/02 19:10:08;;;;;;;55.40;8.43;;;;;;;21.59;58.07;99762.16;7307714;19;134616;-36
2023/10/02 19:12:33;;;;;;;81.23;10.00;;;;;;;21.57;58.58;99771.91;7304613;19;129613;-37
2023/10/02 19:14:58;;;;;;;76.93;9.43;;;;;;;21.58;58.74;99766.59;7310926;19;130043;-38
2023/10/02 19:17:24;;;;;;;70.68;9.52;;;;;;;21.48;58.11;99738.75;7307481;19;130296;-37
2023/10/02 19:19:52;;;;;;;43.67;8.10;;;;;;;21.60;59.06;99761.22;7309153;19;129388;-37
2023/10/02 19:22:18;;;;;;;67.55;9.07;;;;;;;21.58;58.57;99750.06;7308845;19;129728;-37
2023/10/02 19:24:47;;;;;;;60.97;9.03;;;;;;;21.59;58.90;99746.47;7308632;19;131761;-38
2023/10/02 19:27:12;;;;;;;49.35;8.35;;;;;;;21.58;58.57;99750.88;7308113;19;130555;-37
2023/10/02 19:29:39;;;;;;;36.85;7.45;;;;;;;21.59;58.02;99747.28;7307182;19;129209;-38
2023/10/02 19:32:05;;;;;;;48.42;8.63;;;;;;;21.55;58.52;99743.28;7307274;19;129328;-37
2023/10/02 19:34:31;;;;;;;117.47;13.05;;;;;;;21.56;58.18;99751.97;7305839;19;128947;-36
2023/10/02 19:36:56;;;;;;;60.93;9.40;;;;;;;21.53;58.14;99747.84;7308698;19;131098;-36
2023/10/02 19:39:22;;;;;;;102.53;12.23;;;;;;;21.52;58.66;99746.19;7307183;19;129599;-37
2023/10/02 19:41:47;;;;;;;36.90;7.90;;;;;;;21.52;58.40;99740.94;7310067;19;129099;-37
2023/10/02 19:44:13;;;;;;;113.55;11.57;;;;;;;21.52;58.11;99740.94;7307816;19;130146;-39
2023/10/02 19:46:40;;;;;;;78.63;11.30;;;;;;;21.53;58.36;99741.78;7306505;19;130751;-38
2023/10/02 19:49:06;;;;;;;38.38;8.85;;;;;;;21.56;58.98;99739.72;7309624;19;129177;-37
2023/10/02 19:51:32;;;;;;;108.45;12.77;;;;;;;21.56;58.23;99744.13;7307668;19;128910;-37
2023/10/02 19:53:57;;;;;;;80.25;10.40;;;;;;;21.59;58.84;99739.44;7309963;19;130564;-37
2023/10/02 19:56:24;;;;;;;100.32;11.77;;;;;;;21.58;58.55;99742.19;7304314;19;130721;-38
2023/10/02 19:58:50;;;;;;;;;;;;;;;21.60;60.94;99732.44;7305988;19;129538;-37
2023/10/02 20:01:15;;;;;;;54.97;8.85;;;;;;;21.58;59.11;99732.56;7310041;19;129326;-38
2023/10/02 20:03:40;;;;;;;74.78;10.15;;;;;;;21.58;59.41;99732.56;7304918;19;130311;-37
2023/10/02 20:06:07;;;;;;;56.22;9.65;;;;;;;21.60;59.40;99728.00;7308607;19;129569;-37
2023/10/02 20:08:34;;;;;;;67.30;10.15;;;;;;;21.61;58.79;99728.84;7302810;19;129559;-37
2023/10/02 20:11:01;;;;;;;56.40;9.00;;;;;;;21.59;59.04;99728.97;7309621;19;128965;-38
2023/10/02 20:13:26;;;;;;;101.97;11.75;;;;;;;21.58;59.29;99719.50;7301703;19;130118;-37
2023/10/02 20:15:51;;;;;;;83.60;10.82;;;;;;;21.60;58.88;99722.78;7307944;19;129751;-37
2023/10/02 20:18:17;;;;;;;70.47;9.57;;;;;;;21.61;59.06;99719.22;7310451;19;129578;-38
2023/10/02 20:20:45;;;;;;;112.57;12.90;;;;;;;21.60;59.49;99722.78;7312807;19;129145;-36
2023/10/02 20:23:10;;;;;;;49.03;8.68;;;;;;;21.61;58.92;99723.63;7312510;19;130300;-37
2023/10/02 20:25:37;;;;;;;86.93;11.00;;;;;;;21.61;59.31;99724.44;7314669;19;130301;-36
2023/10/02 20:28:02;;;;;;;19.90;6.87;;;;;;;21.60;58.80;99717.53;7313718;19;129506;-36
2023/10/02 20:30:28;;;;;;;70.33;9.77;;;;;;;21.50;59.22;99701.00;7314333;19;129899;-38
2023/10/02 20:32:53;;;;;;;69.87;9.80;;;;;;;21.60;59.03;99711.50;7305883;19;130265;-37
2023/10/02 20:35:18;;;;;;;34.92;8.02;;;;;;;21.59;59.52;99715.06;7314306;19;131156;-36
2023/10/02 20:37:46;;;;;;;61.85;8.85;;;;;;;21.60;59.01;99714.94;7303612;19;130149;-37
2023/10/02 20:40:13;;;;;;;121.90;12.85;;;;;;;21.59;59.07;99710.66;7308409;19;129561;-38
2023/10/02 20:42:39;;;;;;;149.02;14.90;;;;;;;21.60;58.78;99712.31;7304062;19;131530;-36
2023/10/02 20:45:06;;;;;;;41.83;9.57;;;;;;;21.59;59.02;99709.84;7310590;19;131130;-37
2023/10/02 20:47:31;;;;;;;;;;;;;;;21.54;60.56;99691.94;7312542;19;129928;-37
2023/10/02 20:49:56;;;;;;;63.23;8.80;;;;;;;21.62;58.98;99705.16;7315336;19;129207;-37
2023/10/02 20:52:22;;;;;;;48.83;9.23;;;;;;;21.61;58.75;99702.69;7315708;19;130593;-36
2023/10/02 20:54:47;;;;;;;80.50;10.27;;;;;;;21.61;59.37;99702.69;7311796;19;130756;-35
2023/10/02 20:57:14;;;;;;;48.75;8.13;;;;;;;21.60;58.70;99690.56;7307882;19;129759;-39
2023/10/02 20:59:40;;;;;;;95.70;11.30;;;;;;;21.46;59.34;99670.88;7314089;19;130054;-38
2023/10/02 21:02:06;;;;;;;48.05;8.15;;;;;;;21.47;58.82;99672.50;7316326;19;131078;-37
2023/10/02 21:04:32;;;;;;;75.57;9.82;;;;;;;21.58;58.43;99688.09;7310384;19;130257;-37
2023/10/02 21:06:57;;;;;;;51.27;9.70;;;;;;;21.60;58.96;99685.34;7310610;19;129524;-37
2023/10/02 21:09:23;;;;;;;76.97;10.13;;;;;;;21.59;59.12;99686.28;7313384;19;131544;-39
2023/10/02 21:11:49;;;;;;;65.28;9.75;;;;;;;21.58;59.21;99687.25;7314216;19;129559;-38
2023/10/02 21:14:16;;;;;;;;;;;;;;;21.62;60.44;99684.22;7308149;19;130395;-36
2023/10/02 21:16:42;;;;;;;80.32;10.27;;;;;;;21.59;59.07;99684.50;7309772;19;130061;-37
2023/10/02 21:19:07;;;;;;;107.43;10.85;;;;;;;21.60;59.35;99680.13;7311427;19;128950;-37
2023/10/02 21:21:33;;;;;;;67.90;9.83;;;;;;;21.60;58.71;99678.28;7311602;19;131026;-38
2023/10/02 21:23:58;;;;;;;52.40;8.37;;;;;;;21.59;58.93;99684.50;7313642;19;130039;-38
2023/10/02 21:26:27;;;;;;;52.97;8.23;;;;;;;21.46;59.34;99657.78;7310283;19;129563;-37
2023/10/02 21:28:53;;;;;;;81.53;9.75;;;;;;;21.61;58.88;99679.97;7308930;19;130134;-38
2023/10/02 21:31:19;;;;;;;28.27;7.80;;;;;;;21.60;58.64;99669.66;7313778;19;131132;-35
2023/10/02 21:33:44;;;;;;;52.70;8.80;;;;;;;21.60;58.73;99674.88;7312756;19;132007;-38
2023/10/02 21:36:10;;;;;;;70.17;9.50;;;;;;;21.59;58.88;99674.03;7311355;19;129166;-37
2023/10/02 21:38:40;;;;;;;94.03;11.03;;;;;;;21.59;59.29;99674.03;7310257;19;130520;-36
2023/10/02 21:41:12;;;;;;;34.88;7.55;;;;;;;21.60;59.78;99670.44;7312621;19;130182;-37
2023/10/02 21:43:39;;;;;;;55.03;8.50;;;;;;;21.60;59.18;99667.84;7311055;19;131216;-38
2023/10/02 21:46:05;;;;;;;34.65;7.75;;;;;;;21.44;58.51;99636.19;7311377;19;129867;-38
2023/10/02 21:48:30;;;;;;;88.05;10.23;;;;;;;21.61;58.87;99656.41;7309500;19;128996;-36
2023/10/02 21:50:55;;;;;;;40.53;7.77;;;;;;;21.61;59.02;99656.41;7312279;19;130579;-38
2023/10/02 21:53:21;;;;;;;52.15;8.93;;;;;;;21.61;58.89;99661.66;7310490;19;130681;-38
2023/10/02 21:55:47;;;;;;;128.43;13.50;;;;;;;21.61;58.70;99656.41;7309839;19;130773;-37
2023/10/02 21:58:12;;;;;;;69.83;9.27;;;;;;;21.60;58.87;99659.19;7310928;19;129144;-35
2023/10/02 22:00:47;;;;;;;85.88;10.85;;;;;;;21.61;59.05;99661.66;7312206;19;130201;-37
2023/10/02 22:03:14;;;;;;;42.22;8.45;;;;;;;21.61;58.69;99658.19;7311450;19;131169;-38
2023/10/02 22:05:41;;;;;;;75.03;10.32;;;;;;;21.61;58.99;99656.41;7309874;19;128974;-38
2023/10/02 22:08:06;;;;;;;67.65;10.10;;;;;;;21.60;58.80;99652.13;7310525;19;130687;-37
2023/10/02 22:10:32;;;;;;;59.80;8.90;;;;;;;21.60;59.29;99652.13;7308129;19;130901;-38
2023/10/02 22:12:57;;;;;;;43.42;7.93;;;;;;;21.61;58.96;99648.56;7312189;19;130508;-37
2023/10/02 22:15:23;;;;;;;62.20;8.55;;;;;;;21.62;58.74;99647.59;7312083;19;129445;-35
2023/10/02 22:17:51;;;;;;;75.38;10.02;;;;;;;21.62;58.45;99642.38;7307716;19;129004;-37
2023/10/02 22:20:18;;;;;;;30.50;7.03;;;;;;;21.63;58.59;99644.03;7312030;19;130335;-37
2023/10/02 22:22:45;;;;;;;;;;;;;;;21.68;60.67;99644.41;7308827;19;130712;-37
2023/10/02 22:25:20;;;;;;;31.48;7.32;;;;;;;21.63;58.37;99641.41;7312319;19;130508;-39
2023/10/02 22:27:48;;;;;;;61.67;8.95;;;;;;;21.61;58.97;99635.50;7307941;19;128837;-37
2023/10/02 22:30:15;;;;;;;82.22;9.82;;;;;;;21.53;58.69;99614.44;7306493;19;131974;-37
2023/10/02 22:32:41;;;;;;;;;;;;;;;21.70;60.43;99641.69;7313645;19;130372;-38
2023/10/02 22:35:08;;;;;;;57.60;8.70;;;;;;;21.64;58.82;99624.75;7309568;19;129740;-37
2023/10/02 22:37:34;;;;;;;48.15;7.90;;;;;;;21.62;58.74;99634.50;7308643;19;129620;-37
2023/10/02 22:40:03;;;;;;;;;;;;;;;21.69;60.07;99633.00;7306579;19;130755;-38
2023/10/02 22:42:29;;;;;;;34.58;6.95;;;;;;;21.68;58.67;99635.75;7312089;19;130436;-37
2023/10/02 22:44:55;;;;;;;56.50;8.93;;;;;;;21.66;58.46;99633.28;7308307;19;129759;-39
2023/10/02 22:47:21;;;;;;;;;;;;;;;21.69;60.15;99633.00;7310388;19;130256;-38
2023/10/02 22:49:46;;;;;;;99.40;11.60;;;;;;;21.54;58.89;99613.47;7305375;19;130159;-37
2023/10/02 22:52:14;;;;;;;37.58;7.07;;;;;;;21.67;59.07;99628.84;7311486;19;130902;-37
2023/10/02 22:54:40;;;;;;;133.50;14.00;;;;;;;21.66;58.44;99640.31;7308231;19;128698;-37
2023/10/02 22:57:07;;;;;;;52.90;8.43;;;;;;;21.68;58.65;99639.19;7310327;19;128994;-38
2023/10/02 22:59:35;;;;;;;87.53;10.52;;;;;;;21.63;58.52;99617.88;7312639;19;130236;-36
2023/10/02 23:02:06;;;;;;;43.55;7.78;;;;;;;21.66;58.17;99635.91;7309594;19;130932;-38
2023/10/02 23:04:32;;;;;;;37.10;7.75;;;;;;;21.66;58.91;99628.06;7311649;19;129130;-39
2023/10/02 23:06:58;;;;;;;41.40;7.50;;;;;;;21.65;58.07;99623.75;7309271;19;129221;-36
2023/10/02 23:09:24;;;;;;;64.82;8.85;;;;;;;21.68;58.65;99631.34;7311776;19;129901;-36
2023/10/02 23:11:50;;;;;;;64.33;9.60;;;;;;;21.66;58.37;99622.81;7310810;19;130994;-36
2023/10/02 23:14:15;;;;;;;55.47;8.70;;;;;;;21.70;58.89;99616.31;7310032;19;129190;-38